createdAt,value
2016-02-23T00:00:48.922Z,0
2016-02-23T00:01:48.894Z,0
2016-02-23T00:02:48.866Z,0
2016-02-23T00:03:48.836Z,0
2016-02-23T00:04:48.823Z,0
2016-02-23T00:05:48.788Z,0
2016-02-23T00:06:48.744Z,0
2016-02-23T00:07:48.714Z,0
2016-02-23T00:08:48.687Z,0
2016-02-23T00:09:48.658Z,0
2016-02-23T00:10:48.629Z,0
2016-02-23T00:11:48.601Z,0
2016-02-23T00:12:48.588Z,0
2016-02-23T00:13:48.544Z,0
2016-02-23T00:14:48.515Z,0
2016-02-23T00:15:48.486Z,0
2016-02-23T00:16:48.458Z,0
2016-02-23T00:17:48.413Z,0
2016-02-23T00:18:48.385Z,0
2016-02-23T00:19:48.372Z,0
2016-02-23T00:20:48.360Z,0
2016-02-23T00:21:48.327Z,0
2016-02-23T00:22:48.272Z,0
2016-02-23T00:23:48.216Z,0
2016-02-23T00:24:48.191Z,0
2016-02-23T00:25:48.136Z,0
2016-02-23T00:26:48.099Z,0
2016-02-23T00:27:48.081Z,0
2016-02-23T00:28:48.096Z,0
2016-02-23T00:29:48.033Z,0
2016-02-23T00:30:47.985Z,0
2016-02-23T00:31:47.937Z,0
2016-02-23T00:32:47.907Z,0
2016-02-23T00:33:47.877Z,0
2016-02-23T00:34:47.848Z,0
2016-02-23T00:35:47.833Z,0
2016-02-23T00:36:47.803Z,0
2016-02-23T00:37:47.774Z,0
2016-02-23T00:38:47.729Z,0
2016-02-23T00:39:47.701Z,0
2016-02-23T00:40:47.671Z,0
2016-02-23T00:41:47.641Z,0
2016-02-23T00:42:47.604Z,0
2016-02-23T00:43:47.592Z,0
2016-02-23T00:44:47.562Z,0
2016-02-23T00:45:47.520Z,0
2016-02-23T00:46:47.506Z,0
2016-02-23T00:47:47.461Z,0
2016-02-23T00:48:47.434Z,0
2016-02-23T00:49:47.405Z,0
2016-02-23T00:50:47.375Z,0
2016-02-23T00:51:47.347Z,0
2016-02-23T00:52:47.334Z,0
2016-02-23T00:53:47.306Z,0
2016-02-23T00:54:47.262Z,0
2016-02-23T00:55:47.233Z,0
2016-02-23T00:56:47.205Z,0
2016-02-23T00:57:47.177Z,0
2016-02-23T00:58:47.147Z,0
2016-02-23T00:59:47.119Z,0
2016-02-23T01:00:47.091Z,0
2016-02-23T01:01:47.077Z,0
2016-02-23T01:02:47.033Z,0
2016-02-23T01:03:47.005Z,0
2016-02-23T01:04:46.976Z,0
2016-02-23T01:05:46.948Z,0
2016-02-23T01:06:46.919Z,0
2016-02-23T01:07:46.890Z,0
2016-02-23T01:08:46.862Z,0
2016-02-23T01:09:46.834Z,0
2016-02-23T01:10:46.804Z,0
2016-02-23T01:11:46.793Z,0
2016-02-23T01:12:46.748Z,0
2016-02-23T01:13:46.734Z,0
2016-02-23T01:14:46.690Z,0
2016-02-23T01:15:46.693Z,0
2016-02-23T01:16:46.649Z,0
2016-02-23T01:17:46.605Z,0
2016-02-23T01:18:46.576Z,0
2016-02-23T01:19:46.532Z,0
2016-02-23T01:20:48.114Z,0
2016-02-23T01:21:46.475Z,0
2016-02-23T01:22:46.462Z,0
2016-02-23T01:23:46.417Z,0
2016-02-23T01:24:46.406Z,0
2016-02-23T01:25:46.361Z,0
2016-02-23T01:26:46.347Z,0
2016-02-23T01:27:46.319Z,0
2016-02-23T01:28:46.275Z,0
2016-02-23T01:29:46.278Z,0
2016-02-23T01:30:46.218Z,0
2016-02-23T01:31:46.205Z,0
2016-02-23T01:32:46.177Z,0
2016-02-23T01:33:46.164Z,0
2016-02-23T01:34:46.119Z,0
2016-02-23T01:35:46.106Z,0
2016-02-23T01:36:46.047Z,0
2016-02-23T01:37:46.034Z,0
2016-02-23T01:38:45.990Z,0
2016-02-23T01:39:45.961Z,0
2016-02-23T01:40:45.932Z,0
2016-02-23T01:41:45.904Z,0
2016-02-23T01:42:45.891Z,0
2016-02-23T01:43:45.862Z,0
2016-02-23T01:44:45.818Z,0
2016-02-23T01:45:45.806Z,0
2016-02-23T01:46:45.761Z,0
2016-02-23T01:47:45.748Z,0
2016-02-23T01:48:45.704Z,0
2016-02-23T01:49:45.722Z,0
2016-02-23T01:50:45.647Z,0
2016-02-23T01:51:45.618Z,0
2016-02-23T01:52:45.589Z,0
2016-02-23T01:53:45.577Z,0
2016-02-23T01:54:45.533Z,0
2016-02-23T01:55:45.503Z,0
2016-02-23T01:56:45.476Z,0
2016-02-23T01:57:45.447Z,0
2016-02-23T01:58:45.418Z,0
2016-02-23T01:59:45.390Z,0
2016-02-23T02:00:45.361Z,0
2016-02-23T02:01:45.332Z,0
2016-02-23T02:02:45.304Z,0
2016-02-23T02:03:45.275Z,0
2016-02-23T02:04:45.247Z,0
2016-02-23T02:05:45.219Z,0
2016-02-23T02:06:45.205Z,0
2016-02-23T02:07:45.177Z,0
2016-02-23T02:08:45.133Z,0
2016-02-23T02:09:45.104Z,0
2016-02-23T02:10:45.075Z,0
2016-02-23T02:11:45.047Z,0
2016-02-23T02:12:45.018Z,0
2016-02-23T02:13:45.021Z,0
2016-02-23T02:14:44.962Z,0
2016-02-23T02:15:44.932Z,0
2016-02-23T02:16:44.904Z,0
2016-02-23T02:17:44.876Z,0
2016-02-23T02:18:44.847Z,0
2016-02-23T02:19:44.818Z,0
2016-02-23T02:20:44.790Z,0
2016-02-23T02:21:44.606Z,0
2016-02-23T02:22:44.733Z,0
2016-02-23T02:23:44.704Z,0
2016-02-23T02:24:44.676Z,0
2016-02-23T02:25:44.647Z,0
2016-02-23T02:26:44.603Z,0
2016-02-23T02:27:44.590Z,0
2016-02-23T02:28:44.561Z,0
2016-02-23T02:29:44.533Z,0
2016-02-23T02:30:44.510Z,0
2016-02-23T02:31:44.465Z,0
2016-02-23T02:32:44.436Z,0
2016-02-23T02:33:44.424Z,0
2016-02-23T02:34:44.395Z,0
2016-02-23T02:35:44.366Z,0
2016-02-23T02:36:44.338Z,0
2016-02-23T02:37:44.324Z,0
2016-02-23T02:38:44.297Z,0
2016-02-23T02:39:44.284Z,0
2016-02-23T02:40:44.223Z,0
2016-02-23T02:41:44.196Z,0
2016-02-23T02:42:44.167Z,0
2016-02-23T02:43:44.122Z,0
2016-02-23T02:44:44.093Z,0
2016-02-23T02:45:44.081Z,0
2016-02-23T02:46:44.036Z,0
2016-02-23T02:47:44.009Z,0
2016-02-23T02:48:43.995Z,0
2016-02-23T02:49:43.966Z,0
2016-02-23T02:50:43.923Z,0
2016-02-23T02:51:43.737Z,0
2016-02-23T02:52:43.864Z,0
2016-02-23T02:53:43.837Z,0
2016-02-23T02:54:43.808Z,0
2016-02-23T02:55:43.780Z,0
2016-02-23T02:56:43.767Z,0
2016-02-23T02:57:43.722Z,0
2016-02-23T02:58:43.725Z,0
2016-02-23T02:59:43.681Z,0
2016-02-23T03:00:43.652Z,0
2016-02-23T03:01:43.624Z,0
2016-02-23T03:02:43.596Z,0
2016-02-23T03:03:43.552Z,0
2016-02-23T03:04:43.522Z,0
2016-02-23T03:05:43.494Z,0
2016-02-23T03:06:43.466Z,0
2016-02-23T03:07:43.437Z,0
2016-02-23T03:08:43.424Z,0
2016-02-23T03:09:43.395Z,0
2016-02-23T03:10:43.367Z,0
2016-02-23T03:11:43.322Z,0
2016-02-23T03:12:43.294Z,0
2016-02-23T03:13:43.265Z,0
2016-02-23T03:14:43.237Z,0
2016-02-23T03:15:43.209Z,0
2016-02-23T03:16:43.179Z,0
2016-02-23T03:17:43.151Z,0
2016-02-23T03:18:43.123Z,0
2016-02-23T03:19:42.937Z,0
2016-02-23T03:20:43.065Z,0
2016-02-23T03:21:43.037Z,0
2016-02-23T03:22:43.008Z,0
2016-02-23T03:23:42.981Z,0
2016-02-23T03:24:42.951Z,0
2016-02-23T03:25:42.938Z,0
2016-02-23T03:26:42.911Z,0
2016-02-23T03:27:42.881Z,0
2016-02-23T03:28:42.853Z,0
2016-02-23T03:29:42.808Z,0
2016-02-23T03:30:42.780Z,0
2016-02-23T03:31:42.751Z,0
2016-02-23T03:32:42.723Z,0
2016-02-23T03:33:42.710Z,0
2016-02-23T03:34:42.665Z,0
2016-02-23T03:35:42.638Z,0
2016-02-23T03:36:42.624Z,0
2016-02-23T03:37:42.596Z,0
2016-02-23T03:38:42.567Z,0
2016-02-23T03:39:42.523Z,0
2016-02-23T03:40:42.510Z,0
2016-02-23T03:41:42.482Z,0
2016-02-23T03:42:42.437Z,0
2016-02-23T03:43:42.409Z,0
2016-02-23T03:44:42.379Z,0
2016-02-23T03:45:42.352Z,0
2016-02-23T03:46:42.385Z,0
2016-02-23T03:47:42.294Z,0
2016-02-23T03:48:42.110Z,0
2016-02-23T03:49:42.237Z,0
2016-02-23T03:50:42.209Z,0
2016-02-23T03:51:42.181Z,0
2016-02-23T03:52:42.151Z,0
2016-02-23T03:53:42.123Z,0
2016-02-23T03:54:42.095Z,0
2016-02-23T03:55:42.066Z,0
2016-02-23T03:56:42.052Z,0
2016-02-23T03:57:42.009Z,0
2016-02-23T03:58:41.980Z,0
2016-02-23T03:59:41.952Z,0
2016-02-23T04:00:41.923Z,0
2016-02-23T04:01:41.879Z,0
2016-02-23T04:02:41.850Z,0
2016-02-23T04:03:41.838Z,0
2016-02-23T04:04:41.824Z,0
2016-02-23T04:05:41.796Z,0
2016-02-23T04:06:41.768Z,0
2016-02-23T04:07:41.723Z,0
2016-02-23T04:08:41.694Z,0
2016-02-23T04:09:41.666Z,0
2016-02-23T04:10:41.638Z,0
2016-02-23T04:11:41.609Z,0
2016-02-23T04:12:41.580Z,0
2016-02-23T04:13:41.552Z,0
2016-02-23T04:14:41.523Z,0
2016-02-23T04:15:41.495Z,0
2016-02-23T04:16:41.466Z,0
2016-02-23T04:17:41.437Z,0
2016-02-23T04:18:41.409Z,0
2016-02-23T04:19:41.381Z,0
2016-02-23T04:20:41.351Z,0
2016-02-23T04:21:41.323Z,0
2016-02-23T04:22:41.295Z,0
2016-02-23T04:23:41.266Z,0
2016-02-23T04:24:41.237Z,0
2016-02-23T04:25:41.209Z,0
2016-02-23T04:26:41.180Z,0
2016-02-23T04:27:41.153Z,0
2016-02-23T04:28:41.123Z,0
2016-02-23T04:29:41.094Z,0
2016-02-23T04:30:41.067Z,0
2016-02-23T04:31:41.053Z,0
2016-02-23T04:32:41.009Z,0
2016-02-23T04:33:40.981Z,0
2016-02-23T04:34:40.952Z,0
2016-02-23T04:35:40.939Z,0
2016-02-23T04:36:40.895Z,0
2016-02-23T04:37:40.882Z,0
2016-02-23T04:38:40.837Z,0
2016-02-23T04:39:40.824Z,0
2016-02-23T04:40:40.780Z,0
2016-02-23T04:41:40.752Z,0
2016-02-23T04:42:40.723Z,0
2016-02-23T04:43:40.695Z,0
2016-02-23T04:44:40.666Z,0
2016-02-23T04:45:40.638Z,0
2016-02-23T04:46:40.610Z,0
2016-02-23T04:47:40.565Z,0
2016-02-23T04:48:40.551Z,0
2016-02-23T04:49:40.524Z,0
2016-02-23T04:50:40.511Z,0
2016-02-23T04:51:40.466Z,0
2016-02-23T04:52:40.485Z,0
2016-02-23T04:53:40.409Z,0
2016-02-23T04:54:40.397Z,0
2016-02-23T04:55:40.353Z,0
2016-02-23T04:56:40.339Z,0
2016-02-23T04:57:40.280Z,0
2016-02-23T04:58:40.001Z,0
2016-02-23T04:59:40.238Z,0
2016-02-23T05:00:40.209Z,0
2016-02-23T05:01:40.180Z,0
2016-02-23T05:02:40.153Z,0
2016-02-23T05:03:40.108Z,0
2016-02-23T05:04:40.095Z,0
2016-02-23T05:05:40.269Z,0
2016-02-23T05:06:40.038Z,0
2016-02-23T05:07:40.010Z,0
2016-02-23T05:08:39.997Z,0
2016-02-23T05:09:39.952Z,0
2016-02-23T05:10:39.939Z,0
2016-02-23T05:11:39.896Z,0
2016-02-23T05:12:39.882Z,0
2016-02-23T05:13:39.869Z,0
2016-02-23T05:14:39.810Z,0
2016-02-23T05:15:39.796Z,0
2016-02-23T05:16:39.752Z,0
2016-02-23T05:17:39.740Z,0
2016-02-23T05:18:39.695Z,0
2016-02-23T05:19:39.682Z,0
2016-02-23T05:20:39.638Z,0
2016-02-23T05:21:39.625Z,0
2016-02-23T05:22:39.581Z,0
2016-02-23T05:23:39.568Z,0
2016-02-23T05:24:39.524Z,0
2016-02-23T05:25:39.511Z,0
2016-02-23T05:26:39.467Z,0
2016-02-23T05:27:39.453Z,0
2016-02-23T05:28:39.409Z,0
2016-02-23T05:29:39.381Z,0
2016-02-23T05:30:39.353Z,0
2016-02-23T05:31:39.324Z,0
2016-02-23T05:32:39.295Z,0
2016-02-23T05:33:39.252Z,0
2016-02-23T05:34:39.254Z,0
2016-02-23T05:35:39.210Z,0
2016-02-23T05:36:39.181Z,0
2016-02-23T05:37:39.153Z,0
2016-02-23T05:38:39.124Z,0
2016-02-23T05:39:39.096Z,0
2016-02-23T05:40:39.082Z,0
2016-02-23T05:41:39.039Z,0
2016-02-23T05:42:39.010Z,0
2016-02-23T05:43:39.013Z,0
2016-02-23T05:44:38.968Z,0
2016-02-23T05:45:38.924Z,0
2016-02-23T05:46:38.912Z,0
2016-02-23T05:47:38.882Z,0
2016-02-23T05:48:38.838Z,0
2016-02-23T05:49:38.810Z,0
2016-02-23T05:50:38.812Z,0
2016-02-23T05:51:38.754Z,0
2016-02-23T05:52:38.756Z,0
2016-02-23T05:53:38.711Z,0
2016-02-23T05:54:38.683Z,0
2016-02-23T05:55:38.639Z,0
2016-02-23T05:56:38.609Z,0
2016-02-23T05:57:38.597Z,0
2016-02-23T05:58:38.569Z,0
2016-02-23T05:59:38.524Z,0
2016-02-23T06:00:38.512Z,4
2016-02-23T06:01:38.467Z,4
2016-02-23T06:02:38.454Z,4
2016-02-23T06:03:38.410Z,4
2016-02-23T06:04:38.413Z,0
2016-02-23T06:05:38.353Z,4
2016-02-23T06:06:38.324Z,4
2016-02-23T06:07:38.311Z,4
2016-02-23T06:08:38.283Z,8
2016-02-23T06:09:38.255Z,8
2016-02-23T06:10:38.226Z,8
2016-02-23T06:11:38.194Z,12
2016-02-23T06:12:38.166Z,20
2016-02-23T06:13:38.153Z,24
2016-02-23T06:14:38.109Z,28
2016-02-23T06:15:38.096Z,32
2016-02-23T06:16:38.052Z,32
2016-02-23T06:17:38.023Z,40
2016-02-23T06:18:37.996Z,36
2016-02-23T06:19:37.982Z,44
2016-02-23T06:20:37.938Z,56
2016-02-23T06:21:37.924Z,60
2016-02-23T06:22:37.881Z,56
2016-02-23T06:23:37.883Z,52
2016-02-23T06:24:37.823Z,48
2016-02-23T06:25:37.810Z,52
2016-02-23T06:26:37.766Z,64
2016-02-23T06:27:37.754Z,72
2016-02-23T06:28:37.709Z,84
2016-02-23T06:29:37.681Z,92
2016-02-23T06:30:37.652Z,96
2016-02-23T06:31:37.639Z,96
2016-02-23T06:32:37.595Z,96
2016-02-23T06:33:37.581Z,92
2016-02-23T06:34:37.538Z,92
2016-02-23T06:35:37.525Z,100
2016-02-23T06:36:37.497Z,116
2016-02-23T06:37:37.484Z,136
2016-02-23T06:38:37.424Z,152
2016-02-23T06:39:37.426Z,172
2016-02-23T06:40:37.366Z,192
2016-02-23T06:41:37.353Z,192
2016-02-23T06:42:37.325Z,196
2016-02-23T06:43:37.327Z,188
2016-02-23T06:44:37.268Z,212
2016-02-23T06:45:37.239Z,228
2016-02-23T06:46:37.210Z,248
2016-02-23T06:47:37.026Z,288
2016-02-23T06:48:37.154Z,312
2016-02-23T06:49:37.124Z,340
2016-02-23T06:50:37.112Z,356
2016-02-23T06:51:37.084Z,376
2016-02-23T06:52:37.039Z,384
2016-02-23T06:53:37.010Z,420
2016-02-23T06:54:36.998Z,492
2016-02-23T06:55:36.969Z,588
2016-02-23T06:56:36.941Z,712
2016-02-23T06:57:36.912Z,756
2016-02-23T06:58:36.898Z,732
2016-02-23T06:59:36.840Z,724
2016-02-23T07:00:36.826Z,676
2016-02-23T07:01:36.797Z,664
2016-02-23T07:02:36.753Z,820
2016-02-23T07:03:36.741Z,988
2016-02-23T07:04:36.712Z,1012
2016-02-23T07:05:36.684Z,916
2016-02-23T07:06:36.655Z,912
2016-02-23T07:07:36.627Z,1020
2016-02-23T07:08:36.597Z,1168
2016-02-23T07:09:36.570Z,1232
2016-02-23T07:10:36.541Z,1256
2016-02-23T07:11:36.512Z,1304
2016-02-23T07:12:36.483Z,1392
2016-02-23T07:13:36.455Z,1448
2016-02-23T07:14:36.427Z,1368
2016-02-23T07:15:36.398Z,1356
2016-02-23T07:16:36.369Z,1396
2016-02-23T07:17:36.341Z,1324
2016-02-23T07:18:36.327Z,1436
2016-02-23T07:19:36.284Z,1380
2016-02-23T07:20:36.255Z,1496
2016-02-23T07:21:36.242Z,1524
2016-02-23T07:22:36.199Z,1676
2016-02-23T07:23:36.170Z,1816
2016-02-23T07:24:36.156Z,1872
2016-02-23T07:25:36.128Z,2116
2016-02-23T07:26:36.099Z,2076
2016-02-23T07:27:36.055Z,2300
2016-02-23T07:28:36.042Z,2428
2016-02-23T07:29:36.014Z,2684
2016-02-23T07:30:35.985Z,2432
2016-02-23T07:31:35.973Z,2736
2016-02-23T07:32:35.929Z,2660
2016-02-23T07:33:35.915Z,2364
2016-02-23T07:34:36.495Z,2456
2016-02-23T07:35:35.859Z,2816
2016-02-23T07:36:35.814Z,3248
2016-02-23T07:37:35.801Z,3248
2016-02-23T07:38:35.756Z,3124
2016-02-23T07:39:35.744Z,3312
2016-02-23T07:40:35.700Z,3496
2016-02-23T07:41:35.672Z,3964
2016-02-23T07:42:35.658Z,3756
2016-02-23T07:43:35.614Z,3224
2016-02-23T07:44:35.602Z,3396
2016-02-23T07:45:35.572Z,3692
2016-02-23T07:46:35.543Z,3648
2016-02-23T07:47:35.530Z,3168
2016-02-23T07:48:35.488Z,3248
2016-02-23T07:49:35.552Z,3540
2016-02-23T07:50:35.446Z,3980
2016-02-23T07:51:35.416Z,4968
2016-02-23T07:52:35.373Z,5804
2016-02-23T07:53:35.360Z,5672
2016-02-23T07:54:35.331Z,5712
2016-02-23T07:55:35.302Z,4852
2016-02-23T07:56:35.290Z,3888
2016-02-23T07:57:35.246Z,3692
2016-02-23T07:58:35.217Z,3736
2016-02-23T07:59:35.188Z,4316
2016-02-23T08:00:35.160Z,4696
2016-02-23T08:01:35.147Z,3544
2016-02-23T08:02:35.103Z,3164
2016-02-23T08:03:35.090Z,3480
2016-02-23T08:04:35.045Z,3312
2016-02-23T08:05:35.047Z,3612
2016-02-23T08:06:35.113Z,4460
2016-02-23T08:07:34.975Z,3752
2016-02-23T08:08:34.947Z,3280
2016-02-23T08:09:34.919Z,3196
2016-02-23T08:10:34.905Z,3004
2016-02-23T08:11:34.861Z,3300
2016-02-23T08:12:34.848Z,3508
2016-02-23T08:13:34.804Z,3352
2016-02-23T08:14:34.775Z,2892
2016-02-23T08:15:34.777Z,2808
2016-02-23T08:16:34.733Z,3004
2016-02-23T08:17:34.721Z,3208
2016-02-23T08:18:34.677Z,3536
2016-02-23T08:19:34.696Z,3716
2016-02-23T08:20:34.635Z,4532
2016-02-23T08:21:34.607Z,5160
2016-02-23T08:22:34.563Z,4924
2016-02-23T08:23:34.534Z,4636
2016-02-23T08:24:34.521Z,4176
2016-02-23T08:25:34.493Z,3740
2016-02-23T08:26:34.448Z,3596
2016-02-23T08:27:34.420Z,3220
2016-02-23T08:28:34.422Z,3036
2016-02-23T08:29:34.394Z,3040
2016-02-23T08:30:34.350Z,2940
2016-02-23T08:31:34.321Z,3040
2016-02-23T08:32:34.292Z,3460
2016-02-23T08:33:34.265Z,3652
2016-02-23T08:34:34.251Z,3776
2016-02-23T08:35:34.222Z,3784
2016-02-23T08:36:34.195Z,4276
2016-02-23T08:37:34.150Z,4784
2016-02-23T08:38:34.137Z,4828
2016-02-23T08:39:34.108Z,5092
2016-02-23T08:40:34.142Z,4984
2016-02-23T08:41:34.114Z,5184
2016-02-23T08:42:34.023Z,4892
2016-02-23T08:43:33.994Z,4880
2016-02-23T08:44:33.966Z,4716
2016-02-23T08:45:33.937Z,4880
2016-02-23T08:46:33.924Z,4400
2016-02-23T08:47:33.896Z,4116
2016-02-23T08:48:33.867Z,4668
2016-02-23T08:49:33.854Z,4604
2016-02-23T08:50:33.810Z,4720
2016-02-23T08:51:33.781Z,4612
2016-02-23T08:52:33.768Z,4140
2016-02-23T08:53:33.740Z,3388
2016-02-23T08:54:33.711Z,3192
2016-02-23T08:55:33.682Z,3208
2016-02-23T08:56:33.638Z,3456
2016-02-23T08:57:33.626Z,3540
2016-02-23T08:58:33.596Z,3480
2016-02-23T08:59:33.568Z,3400
2016-02-23T09:00:33.540Z,3376
2016-02-23T09:01:33.516Z,3756
2016-02-23T09:02:33.487Z,4104
2016-02-23T09:03:33.506Z,3728
2016-02-23T09:04:33.431Z,3820
2016-02-23T09:05:33.438Z,3984
2016-02-23T09:06:33.378Z,4264
2016-02-23T09:07:33.444Z,3392
2016-02-23T09:08:33.322Z,3584
2016-02-23T09:09:33.292Z,4124
2016-02-23T09:10:33.264Z,4188
2016-02-23T09:11:33.252Z,4568
2016-02-23T09:12:33.223Z,6684
2016-02-23T09:13:33.194Z,9612
2016-02-23T09:14:33.166Z,10660
2016-02-23T09:15:34.294Z,10804
2016-02-23T09:16:33.108Z,10724
2016-02-23T09:17:33.080Z,11812
2016-02-23T09:18:33.067Z,12864
2016-02-23T09:19:33.023Z,13368
2016-02-23T09:20:33.026Z,14368
2016-02-23T09:21:32.966Z,16572
2016-02-23T09:22:32.968Z,18944
2016-02-23T09:23:32.909Z,20288
2016-02-23T09:24:32.896Z,20704
2016-02-23T09:25:32.868Z,18912
2016-02-23T09:26:32.838Z,16988
2016-02-23T09:27:32.810Z,15412
2016-02-23T09:28:32.823Z,13320
2016-02-23T09:29:32.750Z,12340
2016-02-23T09:30:32.709Z,11884
2016-02-23T09:31:32.668Z,11276
2016-02-23T09:32:32.627Z,11376
2016-02-23T09:33:32.589Z,10588
2016-02-23T09:34:32.587Z,9628
2016-02-23T09:35:32.538Z,9340
2016-02-23T09:36:32.504Z,9300
2016-02-23T09:37:32.472Z,9556
2016-02-23T09:38:32.440Z,9772
2016-02-23T09:39:32.456Z,12264
2016-02-23T09:40:32.379Z,15872
2016-02-23T09:41:32.364Z,16960
2016-02-23T09:42:32.334Z,15760
2016-02-23T09:43:32.320Z,14176
2016-02-23T09:44:32.290Z,13044
2016-02-23T09:45:32.262Z,14404
2016-02-23T09:46:32.233Z,14320
2016-02-23T09:47:32.516Z,13856
2016-02-23T09:48:32.174Z,13040
2016-02-23T09:49:32.193Z,12396
2016-02-23T09:50:32.133Z,11788
2016-02-23T09:51:32.088Z,9148
2016-02-23T09:52:32.075Z,7016
2016-02-23T09:53:32.077Z,6500
2016-02-23T09:54:32.252Z,6656
2016-02-23T09:55:31.989Z,6552
2016-02-23T09:56:31.976Z,6796
2016-02-23T09:57:31.963Z,6900
2016-02-23T09:58:32.091Z,6552
2016-02-23T09:59:31.890Z,6988
2016-02-23T10:00:31.862Z,7924
2016-02-23T10:01:31.849Z,9100
2016-02-23T10:02:31.821Z,10684
2016-02-23T10:03:31.792Z,12336
2016-02-23T10:04:31.763Z,13980
2016-02-23T10:05:31.735Z,13328
2016-02-23T10:06:31.721Z,11676
2016-02-23T10:07:31.693Z,10832
2016-02-23T10:08:31.665Z,10364
2016-02-23T10:09:31.636Z,11852
2016-02-23T10:10:31.607Z,10528
2016-02-23T10:11:31.579Z,9748
2016-02-23T10:12:31.566Z,11996
2016-02-23T10:13:31.537Z,12964
2016-02-23T10:14:31.525Z,13372
2016-02-23T10:15:31.684Z,15564
2016-02-23T10:16:31.467Z,18720
2016-02-23T10:17:31.298Z,16944
2016-02-23T10:18:31.411Z,12200
2016-02-23T10:19:31.475Z,9300
2016-02-23T10:20:31.353Z,9644
2016-02-23T10:21:31.340Z,10616
2016-02-23T10:22:31.312Z,11288
2016-02-23T10:23:31.283Z,12620
2016-02-23T10:24:32.099Z,13836
2016-02-23T10:25:31.226Z,14296
2016-02-23T10:26:31.463Z,14328
2016-02-23T10:27:31.185Z,13500
2016-02-23T10:28:31.155Z,13992
2016-02-23T10:29:31.158Z,14536
2016-02-23T10:30:31.115Z,14596
2016-02-23T10:31:31.101Z,13624
2016-02-23T10:32:31.073Z,12536
2016-02-23T10:33:31.060Z,13912
2016-02-23T10:34:31.001Z,13368
2016-02-23T10:35:30.987Z,11892
2016-02-23T10:36:30.959Z,11980
2016-02-23T10:37:30.930Z,11728
2016-02-23T10:38:30.902Z,11144
2016-02-23T10:39:30.873Z,11452
2016-02-23T10:40:30.860Z,11428
2016-02-23T10:41:30.832Z,9872
2016-02-23T10:42:30.818Z,9172
2016-02-23T10:43:30.806Z,9992
2016-02-23T10:44:30.745Z,10132
2016-02-23T10:45:30.795Z,11596
2016-02-23T10:46:30.704Z,11240
2016-02-23T10:47:30.692Z,10104
2016-02-23T10:48:30.647Z,10788
2016-02-23T10:49:30.634Z,13896
2016-02-23T10:50:30.715Z,15204
2016-02-23T10:51:30.577Z,12880
2016-02-23T10:52:30.549Z,10752
2016-02-23T10:53:30.552Z,11848
2016-02-23T10:54:30.507Z,13580
2016-02-23T10:55:30.478Z,12964
2016-02-23T10:56:30.450Z,11188
2016-02-23T10:57:30.422Z,11320
2016-02-23T10:58:30.441Z,10288
2016-02-23T10:59:30.396Z,11368
2016-02-23T11:00:30.366Z,11712
2016-02-23T11:01:30.402Z,12804
2016-02-23T11:02:30.310Z,15472
2016-02-23T11:03:30.703Z,16948
2016-02-23T11:04:30.252Z,17004
2016-02-23T11:05:30.240Z,15908
2016-02-23T11:06:30.212Z,15060
2016-02-23T11:07:30.183Z,13940
2016-02-23T11:08:30.170Z,13692
2016-02-23T11:09:30.126Z,14644
2016-02-23T11:10:30.113Z,16716
2016-02-23T11:11:30.101Z,19392
2016-02-23T11:12:30.165Z,20800
2016-02-23T11:13:30.027Z,20000
2016-02-23T11:14:30.014Z,18720
2016-02-23T11:15:29.986Z,20960
2016-02-23T11:16:29.972Z,22624
2016-02-23T11:17:29.944Z,18752
2016-02-23T11:18:30.056Z,14872
2016-02-23T11:19:29.903Z,14284
2016-02-23T11:20:29.858Z,16052
2016-02-23T11:21:29.845Z,17632
2016-02-23T11:22:29.817Z,17888
2016-02-23T11:23:29.632Z,17480
2016-02-23T11:24:29.775Z,17284
2016-02-23T11:25:29.747Z,15828
2016-02-23T11:26:29.734Z,12992
2016-02-23T11:27:29.689Z,13452
2016-02-23T11:28:29.692Z,14852
2016-02-23T11:29:29.649Z,15380
2016-02-23T11:30:29.635Z,16872
2016-02-23T11:31:29.608Z,16412
2016-02-23T11:32:29.578Z,15068
2016-02-23T11:33:29.550Z,15724
2016-02-23T11:34:29.537Z,18272
2016-02-23T11:35:29.508Z,20352
2016-02-23T11:36:29.495Z,19040
2016-02-23T11:37:29.514Z,17792
2016-02-23T11:38:29.454Z,15744
2016-02-23T11:39:29.410Z,13900
2016-02-23T11:40:29.381Z,14148
2016-02-23T11:41:29.368Z,15396
2016-02-23T11:42:29.354Z,17092
2016-02-23T11:43:29.326Z,15504
2016-02-23T11:44:29.143Z,14464
2016-02-23T11:45:29.270Z,15100
2016-02-23T11:46:29.241Z,13588
2016-02-23T11:47:29.228Z,13564
2016-02-23T11:48:29.215Z,15680
2016-02-23T11:49:29.186Z,16380
2016-02-23T11:50:29.158Z,17172
2016-02-23T11:51:29.128Z,17504
2016-02-23T11:52:29.101Z,18560
2016-02-23T11:53:29.183Z,18528
2016-02-23T11:54:29.061Z,19136
2016-02-23T11:55:29.034Z,20352
2016-02-23T11:56:33.598Z,21120
2016-02-23T11:57:29.001Z,19552
2016-02-23T11:58:28.973Z,17952
2016-02-23T11:59:28.975Z,18624
2016-02-23T12:00:29.087Z,18304
2016-02-23T12:01:28.887Z,19872
2016-02-23T12:02:29.124Z,22400
2016-02-23T12:03:28.845Z,23616
2016-02-23T12:04:28.832Z,22976
2016-02-23T12:05:28.835Z,21120
2016-02-23T12:06:28.876Z,16760
2016-02-23T12:07:28.764Z,13176
2016-02-23T12:08:28.736Z,11384
2016-02-23T12:09:28.707Z,9388
2016-02-23T12:10:28.694Z,7844
2016-02-23T12:11:28.680Z,7280
2016-02-23T12:12:28.652Z,7368
2016-02-23T12:13:28.671Z,7752
2016-02-23T12:14:28.595Z,8248
2016-02-23T12:15:28.582Z,7908
2016-02-23T12:16:28.554Z,7416
2016-02-23T12:17:28.525Z,7624
2016-02-23T12:18:28.513Z,7832
2016-02-23T12:19:28.485Z,8268
2016-02-23T12:20:28.455Z,10224
2016-02-23T12:21:28.443Z,11372
2016-02-23T12:22:28.429Z,11416
2016-02-23T12:23:28.385Z,11016
2016-02-23T12:24:28.372Z,11092
2016-02-23T12:25:28.360Z,11480
2016-02-23T12:26:28.332Z,11600
2016-02-23T12:27:28.287Z,11040
2016-02-23T12:28:28.274Z,10156
2016-02-23T12:29:28.245Z,10876
2016-02-23T12:30:28.217Z,11436
2016-02-23T12:31:28.204Z,12168
2016-02-23T12:32:28.176Z,13520
2016-02-23T12:33:28.147Z,14188
2016-02-23T12:34:28.118Z,15288
2016-02-23T12:35:28.089Z,15124
2016-02-23T12:36:28.092Z,14344
2016-02-23T12:37:28.047Z,13388
2016-02-23T12:38:28.036Z,13736
2016-02-23T12:39:28.023Z,14080
2016-02-23T12:40:27.978Z,13804
2016-02-23T12:41:27.966Z,14624
2016-02-23T12:42:27.936Z,16960
2016-02-23T12:43:27.908Z,19936
2016-02-23T12:44:27.755Z,20480
2016-02-23T12:45:27.866Z,20512
2016-02-23T12:46:27.853Z,18304
2016-02-23T12:47:27.825Z,17056
2016-02-23T12:48:27.781Z,20768
2016-02-23T12:49:27.768Z,24608
2016-02-23T12:50:27.755Z,23968
2016-02-23T12:51:27.726Z,20544
2016-02-23T12:52:27.714Z,16532
2016-02-23T12:53:27.669Z,15948
2016-02-23T12:54:27.672Z,19552
2016-02-23T12:55:27.643Z,21760
2016-02-23T12:56:27.615Z,22720
2016-02-23T12:57:27.618Z,22080
2016-02-23T12:58:27.573Z,19456
2016-02-23T12:59:27.544Z,14916
2016-02-23T13:00:27.532Z,11832
2016-02-23T13:01:27.504Z,10228
2016-02-23T13:02:27.475Z,9564
2016-02-23T13:03:27.493Z,9460
2016-02-23T13:04:27.448Z,9944
2016-02-23T13:05:27.420Z,11148
2016-02-23T13:06:27.391Z,11924
2016-02-23T13:07:27.378Z,12084
2016-02-23T13:08:27.366Z,10892
2016-02-23T13:09:27.337Z,9508
2016-02-23T13:10:27.309Z,8444
2016-02-23T13:11:27.280Z,7452
2016-02-23T13:12:27.266Z,7132
2016-02-23T13:13:27.239Z,6904
2016-02-23T13:14:27.211Z,6548
2016-02-23T13:15:27.182Z,6176
2016-02-23T13:16:27.169Z,5884
2016-02-23T13:17:27.155Z,5584
2016-02-23T13:18:27.127Z,5444
2016-02-23T13:19:27.098Z,5264
2016-02-23T13:20:27.085Z,5208
2016-02-23T13:21:27.042Z,5304
2016-02-23T13:22:27.044Z,5484
2016-02-23T13:23:27.000Z,5220
2016-02-23T13:24:27.034Z,5172
2016-02-23T13:25:26.943Z,5164
2016-02-23T13:26:26.929Z,5060
2016-02-23T13:27:26.917Z,5164
2016-02-23T13:28:26.872Z,5372
2016-02-23T13:29:26.859Z,5716
2016-02-23T13:30:26.863Z,6160
2016-02-23T13:31:26.818Z,7024
2016-02-23T13:32:26.774Z,8100
2016-02-23T13:33:26.761Z,8244
2016-02-23T13:34:26.748Z,8816
2016-02-23T13:35:26.720Z,9508
2016-02-23T13:36:26.692Z,9484
2016-02-23T13:37:26.679Z,8940
2016-02-23T13:38:26.634Z,8752
2016-02-23T13:39:26.621Z,8604
2016-02-23T13:40:26.608Z,8736
2016-02-23T13:41:26.563Z,9508
2016-02-23T13:42:26.536Z,10044
2016-02-23T13:43:26.522Z,10164
2016-02-23T13:44:26.556Z,9628
2016-02-23T13:45:26.466Z,8104
2016-02-23T13:46:26.452Z,6276
2016-02-23T13:47:26.408Z,4692
2016-02-23T13:48:26.395Z,4144
2016-02-23T13:49:26.366Z,4720
2016-02-23T13:50:26.355Z,5268
2016-02-23T13:51:26.310Z,5408